createdAt,value
2023-03-19T00:04:46.982Z,11.04
2023-03-19T00:09:52.023Z,10.99
2023-03-19T00:14:55.935Z,11.05
2023-03-19T00:19:59.654Z,11.06
2023-03-19T00:25:05.299Z,11.16
2023-03-19T00:30:10.292Z,11.11
2023-03-19T00:35:14.290Z,11.10
2023-03-19T00:40:19.749Z,11.06
2023-03-19T00:45:23.872Z,10.91
2023-03-19T00:50:27.576Z,11.00
2023-03-19T00:55:32.865Z,11.00
2023-03-19T01:00:38.255Z,11.07
2023-03-19T01:05:42.021Z,10.99
2023-03-19T01:10:47.337Z,10.93
2023-03-19T01:15:54.448Z,10.90
2023-03-19T01:20:58.931Z,10.77
2023-03-19T01:26:04.702Z,10.81
2023-03-19T01:31:09.980Z,10.82
2023-03-19T01:36:14.948Z,10.84
2023-03-19T01:41:25.359Z,10.77
2023-03-19T01:46:34.291Z,10.77
2023-03-19T01:51:42.698Z,10.68
2023-03-19T01:56:51.274Z,10.66
2023-03-19T02:01:59.448Z,10.62
2023-03-19T02:07:05.042Z,10.63
2023-03-19T02:12:10.855Z,10.68
2023-03-19T02:17:15.068Z,10.68
2023-03-19T02:22:22.661Z,10.67
2023-03-19T02:27:28.728Z,10.67
2023-03-19T02:32:32.409Z,10.57
2023-03-19T02:37:36.226Z,10.59
2023-03-19T02:42:41.572Z,10.49
2023-03-19T02:47:45.308Z,10.57
2023-03-19T02:52:49.016Z,10.57
2023-03-19T02:57:54.642Z,10.45
2023-03-19T03:02:59.109Z,10.45
2023-03-19T03:08:03.219Z,10.40
2023-03-19T03:13:08.605Z,10.31
2023-03-19T03:18:12.384Z,10.22
2023-03-19T03:23:17.194Z,10.20
2023-03-19T03:28:22.366Z,10.15
2023-03-19T03:33:26.184Z,10.14
2023-03-19T03:38:29.990Z,10.07
2023-03-19T03:43:35.177Z,10.04
2023-03-19T03:48:38.986Z,9.96
2023-03-19T03:53:42.796Z,9.88
2023-03-19T03:58:48.713Z,9.80
2023-03-19T04:03:53.144Z,9.77
2023-03-19T04:08:56.980Z,9.69
2023-03-19T04:14:03.358Z,9.68
2023-03-19T04:19:08.975Z,9.66
2023-03-19T04:24:12.951Z,9.58
2023-03-19T04:29:18.821Z,9.54
2023-03-19T04:34:22.663Z,9.54
2023-03-19T04:39:27.052Z,9.47
2023-03-19T04:44:32.150Z,9.46
2023-03-19T04:49:37.394Z,9.43
2023-03-19T04:54:41.325Z,9.35
2023-03-19T04:59:46.911Z,9.31
2023-03-19T05:04:51.080Z,9.27
2023-03-19T05:09:54.893Z,9.26
2023-03-19T05:15:00.515Z,9.18
2023-03-19T05:20:06.504Z,9.13
2023-03-19T05:25:10.964Z,9.09
2023-03-19T05:30:19.107Z,9.05
2023-03-19T05:35:24.785Z,8.95
2023-03-19T05:40:29.321Z,8.96
2023-03-19T05:45:35.810Z,8.93
2023-03-19T05:50:42.525Z,8.90
2023-03-19T05:55:48.272Z,8.90
2023-03-19T06:00:56.124Z,8.87
2023-03-19T06:06:00.006Z,8.87
2023-03-19T06:11:07.331Z,8.84
2023-03-19T06:16:13.119Z,8.85
2023-03-19T06:21:17.493Z,8.83
2023-03-19T06:26:21.390Z,8.86
2023-03-19T06:31:27.610Z,8.85
2023-03-19T06:36:32.572Z,8.82
2023-03-19T06:41:38.708Z,8.83
2023-03-19T06:46:44.060Z,8.84
2023-03-19T06:51:47.796Z,8.95
2023-03-19T06:56:51.493Z,8.99
2023-03-19T07:01:56.575Z,8.98
2023-03-19T07:07:00.467Z,9.02
2023-03-19T07:12:04.741Z,9.14
2023-03-19T07:17:10.461Z,9.21
2023-03-19T07:22:14.262Z,9.20
2023-03-19T07:27:18.033Z,9.35
2023-03-19T07:32:23.464Z,9.35
2023-03-19T07:37:27.472Z,9.37
2023-03-19T07:42:31.217Z,9.47
2023-03-19T07:47:36.290Z,9.62
2023-03-19T07:52:40.088Z,9.86
2023-03-19T07:57:44.022Z,9.93
2023-03-19T08:02:49.202Z,9.96
2023-03-19T08:07:53.031Z,10.31
2023-03-19T08:12:56.765Z,10.29
2023-03-19T08:18:03.464Z,10.21
2023-03-19T08:23:07.293Z,10.29
2023-03-19T08:28:11.103Z,10.43
2023-03-19T08:33:16.671Z,10.44
2023-03-19T08:38:20.516Z,10.39
2023-03-19T08:43:24.218Z,10.50
2023-03-19T08:48:29.648Z,10.49
2023-03-19T08:53:34.593Z,10.73
2023-03-19T08:58:38.441Z,11.00
2023-03-19T09:03:45.642Z,10.77
2023-03-19T09:08:49.432Z,11.07
2023-03-19T09:13:53.175Z,11.09
2023-03-19T09:18:59.462Z,11.49
2023-03-19T09:24:03.564Z,11.88
2023-03-19T09:29:07.345Z,12.23
2023-03-19T09:34:13.927Z,12.40
2023-03-19T09:39:17.662Z,12.59
2023-03-19T09:44:27.977Z,12.49
2023-03-19T09:49:38.682Z,12.91
2023-03-19T09:54:48.331Z,13.11
2023-03-19T09:59:53.199Z,13.12
2023-03-19T10:05:09.401Z,13.22
2023-03-19T10:10:46.531Z,13.22
2023-03-19T10:15:52.802Z,13.81
2023-03-19T10:21:01.585Z,14.14
2023-03-19T10:26:10.291Z,14.09
2023-03-19T10:31:27.873Z,13.91
2023-03-19T10:36:36.539Z,14.08
2023-03-19T10:41:50.149Z,13.96
2023-03-19T10:46:53.906Z,13.94
2023-03-19T10:51:59.595Z,13.97
2023-03-19T10:57:03.604Z,14.24
2023-03-19T11:02:18.416Z,14.67
2023-03-19T11:07:26.379Z,15.01
2023-03-19T11:12:34.879Z,15.43
2023-03-19T11:17:40.122Z,15.43
2023-03-19T11:22:46.044Z,15.09
2023-03-19T11:27:59.725Z,15.07
2023-03-19T11:33:31.662Z,14.90
2023-03-19T11:38:46.743Z,14.75
2023-03-19T11:43:58.563Z,14.83
2023-03-19T11:49:16.434Z,14.40
2023-03-19T11:54:28.730Z,14.41
2023-03-19T11:59:45.228Z,14.39
2023-03-19T12:05:18.632Z,14.47
2023-03-19T12:10:34.041Z,14.47
2023-03-19T12:15:47.418Z,14.26
2023-03-19T12:21:00.588Z,14.49
2023-03-19T12:26:08.713Z,14.56
2023-03-19T12:31:34.667Z,14.78
2023-03-19T12:36:47.172Z,15.35
2023-03-19T12:41:53.380Z,16.02
2023-03-19T12:47:02.040Z,17.27
2023-03-19T12:52:14.769Z,17.02
2023-03-19T12:57:27.665Z,16.91
2023-03-19T13:02:36.583Z,17.64
2023-03-19T13:07:51.262Z,18.11
2023-03-19T13:12:57.775Z,19.18
2023-03-19T13:18:15.525Z,18.40
2023-03-19T13:23:25.383Z,18.29
2023-03-19T13:28:33.483Z,17.86
2023-03-19T13:33:38.589Z,20.35
2023-03-19T13:38:46.280Z,21.66
2023-03-19T13:43:57.375Z,22.85
2023-03-19T13:49:10.965Z,22.36
2023-03-19T13:54:18.806Z,22.75
2023-03-19T13:59:28.417Z,23.40
2023-03-19T14:04:34.253Z,22.29
2023-03-19T14:09:42.152Z,22.87
2023-03-19T14:14:48.329Z,21.92
2023-03-19T14:19:54.326Z,20.15
2023-03-19T14:25:14.070Z,19.92
2023-03-19T14:30:30.871Z,19.60
2023-03-19T14:35:40.430Z,18.53
2023-03-19T14:40:47.389Z,19.04
2023-03-19T14:46:00.172Z,18.52
2023-03-19T14:51:37.683Z,17.89
2023-03-19T14:56:41.762Z,17.34
2023-03-19T15:01:51.205Z,18.79
2023-03-19T15:06:59.111Z,19.57
2023-03-19T15:12:31.431Z,18.82
2023-03-19T15:17:38.923Z,18.34
2023-03-19T15:22:42.841Z,17.53
2023-03-19T15:27:46.683Z,18.07
2023-03-19T15:33:08.081Z,17.78
2023-03-19T15:38:16.101Z,17.76
2023-03-19T15:43:20.444Z,17.46
2023-03-19T15:48:28.700Z,16.77
2023-03-19T15:53:35.465Z,16.80
2023-03-19T15:58:42.737Z,17.01
2023-03-19T16:03:53.043Z,17.87
2023-03-19T16:09:08.488Z,17.94
2023-03-19T16:14:23.048Z,18.07
2023-03-19T16:19:34.048Z,18.29
2023-03-19T16:24:41.441Z,18.33
2023-03-19T16:29:47.673Z,17.51
2023-03-19T16:34:55.270Z,16.66
2023-03-19T16:40:00.547Z,15.98
2023-03-19T16:45:18.112Z,15.64
2023-03-19T16:50:29.206Z,15.15
2023-03-19T16:55:35.504Z,14.78
2023-03-19T17:00:39.416Z,14.24
2023-03-19T17:05:45.980Z,14.23
2023-03-19T17:10:52.834Z,13.75
2023-03-19T17:15:59.337Z,13.41
2023-03-19T17:21:09.717Z,13.21
2023-03-19T17:26:17.098Z,12.68
2023-03-19T17:31:24.933Z,12.58
2023-03-19T17:36:30.478Z,12.55
2023-03-19T17:41:35.729Z,12.49
2023-03-19T17:46:41.869Z,12.42
2023-03-19T17:51:47.470Z,12.52
2023-03-19T17:56:51.188Z,12.56
2023-03-19T18:01:55.114Z,12.42
2023-03-19T18:07:00.641Z,12.30
2023-03-19T18:12:04.695Z,11.93
2023-03-19T18:17:08.827Z,12.06
2023-03-19T18:22:16.156Z,11.77
2023-03-19T18:27:22.666Z,11.59
2023-03-19T18:32:29.599Z,11.55
2023-03-19T18:37:36.311Z,11.62
2023-03-19T18:42:40.107Z,11.74
2023-03-19T18:47:44.847Z,11.73
2023-03-19T18:52:51.887Z,11.45
2023-03-19T18:57:59.541Z,11.48
2023-03-19T19:03:03.978Z,11.52
2023-03-19T19:08:15.397Z,11.31
2023-03-19T19:13:22.394Z,11.19
2023-03-19T19:18:29.726Z,11.17
2023-03-19T19:23:34.927Z,11.02
2023-03-19T19:28:41.498Z,10.65
2023-03-19T19:33:45.530Z,10.74
2023-03-19T19:38:52.179Z,10.94
2023-03-19T19:43:57.468Z,10.84
2023-03-19T19:49:01.202Z,10.91
2023-03-19T19:54:06.813Z,10.82
2023-03-19T19:59:16.080Z,10.67
2023-03-19T20:04:21.316Z,10.47
2023-03-19T20:09:27.480Z,10.45
2023-03-19T20:14:31.487Z,10.45
2023-03-19T20:19:35.534Z,10.44
2023-03-19T20:24:40.685Z,10.14
2023-03-19T20:29:44.953Z,10.15
2023-03-19T20:34:48.675Z,10.33
2023-03-19T20:39:53.887Z,10.43
2023-03-19T20:44:59.706Z,10.20
2023-03-19T20:50:03.430Z,10.22
2023-03-19T20:55:15.444Z,10.28
2023-03-19T21:00:27.050Z,10.25
2023-03-19T21:05:36.318Z,10.04
2023-03-19T21:10:43.357Z,9.93
2023-03-19T21:15:49.601Z,9.98
2023-03-19T21:20:57.126Z,10.07
2023-03-19T21:26:09.388Z,9.97
2023-03-19T21:31:17.843Z,10.03
2023-03-19T21:36:21.920Z,10.07
2023-03-19T21:41:30.337Z,10.12
2023-03-19T21:46:35.647Z,10.01
2023-03-19T21:51:39.833Z,10.11
2023-03-19T21:56:46.631Z,9.98
2023-03-19T22:01:50.942Z,9.90
2023-03-19T22:06:54.850Z,9.83
2023-03-19T22:11:59.901Z,9.74
2023-03-19T22:17:03.585Z,9.56
2023-03-19T22:22:07.278Z,9.48
2023-03-19T22:27:17.475Z,9.59
2023-03-19T22:32:21.403Z,9.67
2023-03-19T22:37:27.876Z,9.40
2023-03-19T22:42:32.938Z,9.54
2023-03-19T22:47:39.334Z,9.53
2023-03-19T22:52:43.059Z,9.37
2023-03-19T22:57:49.088Z,9.34
2023-03-19T23:02:57.354Z,9.47
2023-03-19T23:08:03.692Z,9.18
2023-03-19T23:13:10.529Z,9.28
2023-03-19T23:18:19.171Z,9.30
2023-03-19T23:23:22.872Z,9.26
2023-03-19T23:28:33.211Z,9.38
2023-03-19T23:33:37.244Z,9.31
2023-03-19T23:38:41.163Z,9.40
2023-03-19T23:43:47.461Z,9.13
2023-03-19T23:48:51.621Z,9.05
2023-03-19T23:53:55.332Z,8.87
2023-03-19T23:59:00.686Z,8.77
